sensor_id;sensor_type;location;lat;lon;timestamp;pressure;altitude;pressure_sealevel;temperature;humidity
69411;BME280;56604;48.652;9.194;2023-02-28T00:00:15;96823.69;;;-2.97;67.42
69411;BME280;56604;48.652;9.194;2023-02-28T00:02:43;96824.50;;;-2.97;67.33
69411;BME280;56604;48.652;9.194;2023-02-28T00:05:10;96835.06;;;-3.00;68.00
69411;BME280;56604;48.652;9.194;2023-02-28T00:07:36;96825.91;;;-3.02;68.04
69411;BME280;56604;48.652;9.194;2023-02-28T00:10:03;96832.66;;;-3.01;67.77
69411;BME280;56604;48.652;9.194;2023-02-28T00:12:29;96826.84;;;-3.03;68.18
69411;BME280;56604;48.652;9.194;2023-02-28T00:14:54;96829.56;;;-3.05;68.17
69411;BME280;56604;48.652;9.194;2023-02-28T00:17:19;96833.41;;;-3.09;68.36
69411;BME280;56604;48.652;9.194;2023-02-28T00:19:49;96832.72;;;-3.11;68.23
69411;BME280;56604;48.652;9.194;2023-02-28T00:22:16;96838.41;;;-3.07;68.32
69411;BME280;56604;48.652;9.194;2023-02-28T00:24:42;96821.34;;;-3.08;67.99
69411;BME280;56604;48.652;9.194;2023-02-28T00:27:07;96830.03;;;-3.09;68.23
69411;BME280;56604;48.652;9.194;2023-02-28T00:29:33;96820.34;;;-3.15;68.74
69411;BME280;56604;48.652;9.194;2023-02-28T00:31:58;96831.56;;;-3.17;68.61
69411;BME280;56604;48.652;9.194;2023-02-28T00:34:23;96829.28;;;-3.20;68.82
69411;BME280;56604;48.652;9.194;2023-02-28T00:36:49;96831.88;;;-3.20;68.91
69411;BME280;56604;48.652;9.194;2023-02-28T00:39:14;96824.16;;;-3.20;68.91
69411;BME280;56604;48.652;9.194;2023-02-28T00:41:40;96821.75;;;-3.21;68.82
69411;BME280;56604;48.652;9.194;2023-02-28T00:44:05;96828.34;;;-3.19;68.99
69411;BME280;56604;48.652;9.194;2023-02-28T00:46:30;96829.28;;;-3.20;69.35
69411;BME280;56604;48.652;9.194;2023-02-28T00:48:55;96826.72;;;-3.20;69.15
69411;BME280;56604;48.652;9.194;2023-02-28T00:51:21;96827.03;;;-3.23;69.40
69411;BME280;56604;48.652;9.194;2023-02-28T00:53:46;96824.44;;;-3.23;68.89
69411;BME280;56604;48.652;9.194;2023-02-28T00:56:11;96826.06;;;-3.22;68.87
69411;BME280;56604;48.652;9.194;2023-02-28T00:58:37;96818.34;;;-3.22;69.24
69411;BME280;56604;48.652;9.194;2023-02-28T01:01:02;96812.69;;;-3.25;69.64
69411;BME280;56604;48.652;9.194;2023-02-28T01:03:28;96815.13;;;-3.24;69.10
69411;BME280;56604;48.652;9.194;2023-02-28T01:05:53;96816.06;;;-3.25;69.55
69411;BME280;56604;48.652;9.194;2023-02-28T01:08:18;96816.38;;;-3.28;69.58
69411;BME280;56604;48.652;9.194;2023-02-28T01:10:44;96816.38;;;-3.28;69.22
69411;BME280;56604;48.652;9.194;2023-02-28T01:13:11;96822.34;;;-3.27;69.21
69411;BME280;56604;48.652;9.194;2023-02-28T01:15:36;96819.91;;;-3.29;69.28
69411;BME280;56604;48.652;9.194;2023-02-28T01:18:02;96812.06;;;-3.27;69.79
69411;BME280;56604;48.652;9.194;2023-02-28T01:20:27;96817.34;;;-3.29;69.44
69411;BME280;56604;48.652;9.194;2023-02-28T01:22:53;96816.66;;;-3.31;69.53
69411;BME280;56604;48.652;9.194;2023-02-28T01:25:18;96818.28;;;-3.30;70.15
69411;BME280;56604;48.652;9.194;2023-02-28T01:27:43;96814.75;;;-3.29;69.62
69411;BME280;56604;48.652;9.194;2023-02-28T01:30:10;96813.78;;;-3.28;70.60
69411;BME280;56604;48.652;9.194;2023-02-28T01:32:36;96809.91;;;-3.32;70.29
69411;BME280;56604;48.652;9.194;2023-02-28T01:35:01;96810.88;;;-3.33;70.08
69411;BME280;56604;48.652;9.194;2023-02-28T01:37:27;96808.31;;;-3.33;70.32
69411;BME280;56604;48.652;9.194;2023-02-28T01:39:52;96809.25;;;-3.34;70.75
69411;BME280;56604;48.652;9.194;2023-02-28T01:42:17;96807.47;;;-3.33;71.10
69411;BME280;56604;48.652;9.194;2023-02-28T01:44:57;96800.59;;;-3.33;71.34
69411;BME280;56604;48.652;9.194;2023-02-28T01:47:25;96801.03;;;-3.37;71.49
69411;BME280;56604;48.652;9.194;2023-02-28T01:49:53;96804.41;;;-3.37;71.48
69411;BME280;56604;48.652;9.194;2023-02-28T01:52:18;96800.22;;;-3.38;71.82
69411;BME280;56604;48.652;9.194;2023-02-28T01:54:51;96803.75;;;-3.39;71.61
69411;BME280;56604;48.652;9.194;2023-02-28T01:57:20;96798.47;;;-3.37;72.31
69411;BME280;56604;48.652;9.194;2023-02-28T01:59:59;96801.84;;;-3.37;72.03
69411;BME280;56604;48.652;9.194;2023-02-28T02:02:26;96789.78;;;-3.36;71.87
69411;BME280;56604;48.652;9.194;2023-02-28T02:05:04;96796.03;;;-3.39;72.20
69411;BME280;56604;48.652;9.194;2023-02-28T02:07:33;96786.72;;;-3.40;72.67
69411;BME280;56604;48.652;9.194;2023-02-28T02:10:03;96794.28;;;-3.38;72.69
69411;BME280;56604;48.652;9.194;2023-02-28T02:13:00;96790.75;;;-3.37;72.79
69411;BME280;56604;48.652;9.194;2023-02-28T02:15:36;96796.88;;;-3.38;73.01
69411;BME280;56604;48.652;9.194;2023-02-28T02:18:17;96786.41;;;-3.37;73.00
69411;BME280;56604;48.652;9.194;2023-02-28T02:29:34;96766.66;;;-3.36;73.25
69411;BME280;56604;48.652;9.194;2023-02-28T02:35:18;96764.97;;;-3.28;73.29
69411;BME280;56604;48.652;9.194;2023-02-28T02:37:51;96770.09;;;-3.28;73.01
69411;BME280;56604;48.652;9.194;2023-02-28T02:40:21;96769.78;;;-3.25;73.22
69411;BME280;56604;48.652;9.194;2023-02-28T02:42:59;96777.38;;;-3.23;73.42
69411;BME280;56604;48.652;9.194;2023-02-28T02:45:32;96765.69;;;-3.18;73.11
69411;BME280;56604;48.652;9.194;2023-02-28T02:48:02;96763.13;;;-3.18;73.24
69411;BME280;56604;48.652;9.194;2023-02-28T02:50:38;96765.03;;;-3.20;73.21
69411;BME280;56604;48.652;9.194;2023-02-28T02:53:06;96780.81;;;-3.14;73.12
69411;BME280;56604;48.652;9.194;2023-02-28T02:55:38;96763.13;;;-3.18;73.23
69411;BME280;56604;48.652;9.194;2023-02-28T02:58:08;96772.44;;;-3.17;73.55
69411;BME280;56604;48.652;9.194;2023-02-28T03:00:42;96768.94;;;-3.15;73.42
69411;BME280;56604;48.652;9.194;2023-02-28T03:03:09;96776.63;;;-3.15;73.47
69411;BME280;56604;48.652;9.194;2023-02-28T03:05:42;96773.22;;;-3.16;73.67
69411;BME280;56604;48.652;9.194;2023-02-28T03:08:10;96776.47;;;-3.14;73.77
69411;BME280;56604;48.652;9.194;2023-02-28T03:10:41;96781.13;;;-3.18;74.28
69411;BME280;56604;48.652;9.194;2023-02-28T03:23:58;96785.06;;;-3.05;74.19
69411;BME280;56604;48.652;9.194;2023-02-28T03:26:28;96780.06;;;-3.07;73.75
69411;BME280;56604;48.652;9.194;2023-02-28T03:29:10;96773.47;;;-3.09;74.00
69411;BME280;56604;48.652;9.194;2023-02-28T03:31:53;96772.34;;;-3.07;74.11
69411;BME280;56604;48.652;9.194;2023-02-28T03:34:29;96772.50;;;-3.08;73.94
69411;BME280;56604;48.652;9.194;2023-02-28T03:36:58;96775.06;;;-3.08;74.19
69411;BME280;56604;48.652;9.194;2023-02-28T03:39:40;96778.31;;;-3.06;73.91
69411;BME280;56604;48.652;9.194;2023-02-28T03:42:11;96780.56;;;-3.03;74.27
69411;BME280;56604;48.652;9.194;2023-02-28T03:44:42;96767.06;;;-3.05;74.24
69411;BME280;56604;48.652;9.194;2023-02-28T03:47:17;96766.41;;;-3.07;74.67
69411;BME280;56604;48.652;9.194;2023-02-28T03:49:57;96766.13;;;-3.04;74.36
69411;BME280;56604;48.652;9.194;2023-02-28T03:52:27;96773.28;;;-3.08;75.23
69411;BME280;56604;48.652;9.194;2023-02-28T03:55:00;96768.03;;;-3.06;74.76
69411;BME280;56604;48.652;9.194;2023-02-28T04:00:21;96770.13;;;-3.02;74.82
69411;BME280;56604;48.652;9.194;2023-02-28T04:02:49;96770.94;;;-3.01;75.19
69411;BME280;56604;48.652;9.194;2023-02-28T04:05:18;96772.25;;;-2.97;75.13
69411;BME280;56604;48.652;9.194;2023-02-28T04:07:44;96775.78;;;-2.98;75.23
69411;BME280;56604;48.652;9.194;2023-02-28T04:10:10;96773.84;;;-2.96;75.87
69411;BME280;56604;48.652;9.194;2023-02-28T04:12:36;96779.16;;;-2.98;75.16
69411;BME280;56604;48.652;9.194;2023-02-28T04:15:01;96764.69;;;-2.99;75.84
69411;BME280;56604;48.652;9.194;2023-02-28T04:17:26;96771.28;;;-2.96;75.67
69411;BME280;56604;48.652;9.194;2023-02-28T04:19:52;96774.81;;;-2.97;75.53
69411;BME280;56604;48.652;9.194;2023-02-28T04:22:19;96775.13;;;-3.00;75.51
69411;BME280;56604;48.652;9.194;2023-02-28T04:24:44;96772.25;;;-2.97;75.51
69411;BME280;56604;48.652;9.194;2023-02-28T04:27:10;96770.47;;;-2.97;75.61
69411;BME280;56604;48.652;9.194;2023-02-28T04:29:35;96777.41;;;-2.97;75.44
69411;BME280;56604;48.652;9.194;2023-02-28T04:32:01;96770.03;;;-2.92;75.47
69411;BME280;56604;48.652;9.194;2023-02-28T04:34:28;96770.34;;;-2.95;75.08
69411;BME280;56604;48.652;9.194;2023-02-28T04:36:56;96765.19;;;-2.95;75.60
69411;BME280;56604;48.652;9.194;2023-02-28T04:39:23;96764.09;;;-2.92;75.72
69411;BME280;56604;48.652;9.194;2023-02-28T04:41:49;96767.59;;;-2.94;75.56
69411;BME280;56604;48.652;9.194;2023-02-28T04:44:15;96764.59;;;-2.89;76.15
69411;BME280;56604;48.652;9.194;2023-02-28T04:46:41;96763.78;;;-2.89;75.90
69411;BME280;56604;48.652;9.194;2023-02-28T04:49:08;96770.03;;;-2.92;76.01
69411;BME280;56604;48.652;9.194;2023-02-28T04:51:34;96771.50;;;-2.89;76.22
69411;BME280;56604;48.652;9.194;2023-02-28T04:53:59;96793.03;;;-2.90;75.77
69411;BME280;56604;48.652;9.194;2023-02-28T04:56:25;96772.31;;;-2.89;75.96
69411;BME280;56604;48.652;9.194;2023-02-28T04:58:50;96763.00;;;-2.90;76.50
69411;BME280;56604;48.652;9.194;2023-02-28T05:03:48;96776.66;;;-2.89;76.72
69411;BME280;56604;48.652;9.194;2023-02-28T05:06:14;96766.19;;;-2.88;76.87
69411;BME280;56604;48.652;9.194;2023-02-28T05:08:40;96778.75;;;-2.85;77.20
69411;BME280;56604;48.652;9.194;2023-02-28T05:11:10;96768.94;;;-2.89;77.14
69411;BME280;56604;48.652;9.194;2023-02-28T05:13:37;96766.50;;;-2.91;76.83
69411;BME280;56604;48.652;9.194;2023-02-28T05:16:02;96764.72;;;-2.90;77.46
69411;BME280;56604;48.652;9.194;2023-02-28T05:18:27;96771.66;;;-2.91;78.03
69411;BME280;56604;48.652;9.194;2023-02-28T05:20:53;96778.41;;;-2.90;78.30
69411;BME280;56604;48.652;9.194;2023-02-28T05:23:19;96775.97;;;-2.91;78.63
69411;BME280;56604;48.652;9.194;2023-02-28T05:25:46;96775.19;;;-2.92;78.43
69411;BME280;56604;48.652;9.194;2023-02-28T05:28:11;96785.47;;;-2.92;77.90
69411;BME280;56604;48.652;9.194;2023-02-28T05:30:37;96788.84;;;-2.91;78.03
69411;BME280;56604;48.652;9.194;2023-02-28T05:33:02;96783.56;;;-2.90;78.25
69411;BME280;56604;48.652;9.194;2023-02-28T05:35:27;96784.88;;;-2.86;78.02
69411;BME280;56604;48.652;9.194;2023-02-28T05:37:53;96797.06;;;-2.88;78.29
69411;BME280;56604;48.652;9.194;2023-02-28T05:40:18;96785.47;;;-2.92;78.18
69411;BME280;56604;48.652;9.194;2023-02-28T05:42:45;96785.34;;;-2.82;78.22
69411;BME280;56604;48.652;9.194;2023-02-28T05:45:11;96787.28;;;-2.84;77.67
69411;BME280;56604;48.652;9.194;2023-02-28T05:47:36;96786.16;;;-2.82;78.08
69411;BME280;56604;48.652;9.194;2023-02-28T05:50:02;96786.16;;;-2.82;77.86
69411;BME280;56604;48.652;9.194;2023-02-28T05:52:28;96779.72;;;-2.86;77.57
69411;BME280;56604;48.652;9.194;2023-02-28T05:54:55;96787.13;;;-2.83;77.64
69411;BME280;56604;48.652;9.194;2023-02-28T05:57:20;96780.13;;;-2.73;77.96
69411;BME280;56604;48.652;9.194;2023-02-28T05:59:46;96787.31;;;-2.76;77.49
69411;BME280;56604;48.652;9.194;2023-02-28T06:02:13;96781.25;;;-2.75;78.05
69411;BME280;56604;48.652;9.194;2023-02-28T06:04:39;96793.13;;;-2.74;77.76
69411;BME280;56604;48.652;9.194;2023-02-28T06:07:06;96797.13;;;-2.80;77.48
69411;BME280;56604;48.652;9.194;2023-02-28T06:09:31;96794.25;;;-2.77;77.99
69411;BME280;56604;48.652;9.194;2023-02-28T06:11:58;96794.41;;;-2.78;77.65
69411;BME280;56604;48.652;9.194;2023-02-28T06:14:24;96785.59;;;-2.76;78.15
69411;BME280;56604;48.652;9.194;2023-02-28T06:16:49;96797.34;;;-2.73;77.19
69411;BME280;56604;48.652;9.194;2023-02-28T06:19:15;96799.75;;;-2.72;77.57
69411;BME280;56604;48.652;9.194;2023-02-28T06:21:41;96800.25;;;-2.68;77.71
69411;BME280;56604;48.652;9.194;2023-02-28T06:24:06;96806.34;;;-2.69;77.51
69411;BME280;56604;48.652;9.194;2023-02-28T06:26:32;96806.84;;;-2.65;77.49
69411;BME280;56604;48.652;9.194;2023-02-28T06:28:57;96807.50;;;-2.63;76.95
69411;BME280;56604;48.652;9.194;2023-02-28T06:31:22;96803.97;;;-2.62;76.37
69411;BME280;56604;48.652;9.194;2023-02-28T06:33:49;96812.22;;;-2.59;76.63
69411;BME280;56604;48.652;9.194;2023-02-28T06:36:15;96818.78;;;-2.56;76.17
69411;BME280;56604;48.652;9.194;2023-02-28T06:38:41;96819.63;;;-2.56;75.67
69411;BME280;56604;48.652;9.194;2023-02-28T06:41:07;96826.25;;;-2.53;75.67
69411;BME280;56604;48.652;9.194;2023-02-28T06:43:41;96809.88;;;-2.44;75.28
69411;BME280;56604;48.652;9.194;2023-02-28T06:46:08;96825.50;;;-2.37;75.58
69411;BME280;56604;48.652;9.194;2023-02-28T06:48:34;96820.00;;;-2.42;75.19
69411;BME280;56604;48.652;9.194;2023-02-28T06:51:09;96823.75;;;-2.37;75.46
69411;BME280;56604;48.652;9.194;2023-02-28T06:53:35;96825.88;;;-2.32;74.93
69411;BME280;56604;48.652;9.194;2023-02-28T06:56:04;96824.41;;;-2.35;74.59
69411;BME280;56604;48.652;9.194;2023-02-28T06:58:30;96833.28;;;-2.29;74.75
69411;BME280;56604;48.652;9.194;2023-02-28T07:00:55;96821.19;;;-2.29;74.70
69411;BME280;56604;48.652;9.194;2023-02-28T07:03:21;96832.00;;;-2.25;74.24
69411;BME280;56604;48.652;9.194;2023-02-28T07:05:46;96826.22;;;-2.27;74.59
69411;BME280;56604;48.652;9.194;2023-02-28T07:08:11;96838.91;;;-2.26;74.05
69411;BME280;56604;48.652;9.194;2023-02-28T07:10:37;96829.28;;;-2.23;74.52
69411;BME280;56604;48.652;9.194;2023-02-28T07:13:04;96834.94;;;-2.20;74.42
69411;BME280;56604;48.652;9.194;2023-02-28T07:15:29;96846.19;;;-2.21;74.43
69411;BME280;56604;48.652;9.194;2023-02-28T07:17:55;96838.31;;;-2.19;74.45
69411;BME280;56604;48.652;9.194;2023-02-28T07:20:21;96842.50;;;-2.18;74.37
69411;BME280;56604;48.652;9.194;2023-02-28T07:22:46;96833.16;;;-2.19;73.79
69411;BME280;56604;48.652;9.194;2023-02-28T07:25:16;96843.44;;;-2.19;73.67
69411;BME280;56604;48.652;9.194;2023-02-28T07:27:42;96835.09;;;-2.21;73.40
69411;BME280;56604;48.652;9.194;2023-02-28T07:30:08;96844.91;;;-2.17;73.94
69411;BME280;56604;48.652;9.194;2023-02-28T07:32:33;96845.09;;;-2.18;73.08
69411;BME280;56604;48.652;9.194;2023-02-28T07:35:03;96843.13;;;-2.16;73.02
69411;BME280;56604;48.652;9.194;2023-02-28T07:37:28;96841.22;;;-2.14;73.22
69411;BME280;56604;48.652;9.194;2023-02-28T07:39:56;96842.53;;;-2.10;73.13
69411;BME280;56604;48.652;9.194;2023-02-28T07:42:21;96866.97;;;-2.14;73.20
69411;BME280;56604;48.652;9.194;2023-02-28T07:44:47;96842.19;;;-2.15;73.29
69411;BME280;56604;48.652;9.194;2023-02-28T07:47:12;96849.31;;;-2.09;72.96
69411;BME280;56604;48.652;9.194;2023-02-28T07:49:37;96840.28;;;-2.05;72.96
69411;BME280;56604;48.652;9.194;2023-02-28T07:52:04;96836.78;;;-2.04;72.46
69411;BME280;56604;48.652;9.194;2023-02-28T07:54:30;96838.19;;;-2.10;72.80
69411;BME280;56604;48.652;9.194;2023-02-28T07:56:56;96844.97;;;-2.09;72.16
69411;BME280;56604;48.652;9.194;2023-02-28T07:59:21;96838.38;;;-2.03;72.78
69411;BME280;56604;48.652;9.194;2023-02-28T08:01:46;96851.13;;;-2.01;72.52
69411;BME280;56604;48.652;9.194;2023-02-28T08:04:11;96845.31;;;-2.04;72.50
69411;BME280;56604;48.652;9.194;2023-02-28T08:06:37;96850.31;;;-2.02;72.26
69411;BME280;56604;48.652;9.194;2023-02-28T08:09:02;96858.34;;;-1.97;71.73
69411;BME280;56604;48.652;9.194;2023-02-28T08:11:28;96860.78;;;-1.95;71.65
69411;BME280;56604;48.652;9.194;2023-02-28T08:13:54;96856.13;;;-1.92;71.92
69411;BME280;56604;48.652;9.194;2023-02-28T08:16:20;96870.94;;;-1.94;72.02
69411;BME280;56604;48.652;9.194;2023-02-28T08:18:48;96862.59;;;-1.88;72.39
69411;BME280;56604;48.652;9.194;2023-02-28T08:21:14;96854.34;;;-1.91;71.63
69411;BME280;56604;48.652;9.194;2023-02-28T08:23:39;96857.78;;;-1.83;71.57
69411;BME280;56604;48.652;9.194;2023-02-28T08:26:05;96856.03;;;-1.82;71.60
69411;BME280;56604;48.652;9.194;2023-02-28T08:28:30;96863.28;;;-1.77;70.32
69411;BME280;56604;48.652;9.194;2023-02-28T08:30:55;96860.09;;;-1.63;71.39
69411;BME280;56604;48.652;9.194;2023-02-28T08:33:22;96866.25;;;-1.56;70.30
69411;BME280;56604;48.652;9.194;2023-02-28T08:35:47;96854.66;;;-1.52;70.70
69411;BME280;56604;48.652;9.194;2023-02-28T08:38:13;96856.44;;;-1.52;70.45
69411;BME280;56604;48.652;9.194;2023-02-28T08:40:38;96867.53;;;-1.52;69.25
69411;BME280;56604;48.652;9.194;2023-02-28T08:43:03;96859.81;;;-1.52;70.13
69411;BME280;56604;48.652;9.194;2023-02-28T08:45:29;96859.81;;;-1.44;68.98
69411;BME280;56604;48.652;9.194;2023-02-28T08:47:55;96867.09;;;-1.39;70.18
69411;BME280;56604;48.652;9.194;2023-02-28T08:50:21;96866.94;;;-1.29;69.02
69411;BME280;56604;48.652;9.194;2023-02-28T08:52:47;96883.38;;;-1.39;68.38
69411;BME280;56604;48.652;9.194;2023-02-28T08:55:12;96878.69;;;-1.35;69.17
69411;BME280;56604;48.652;9.194;2023-02-28T08:57:37;96889.81;;;-1.34;68.61
69411;BME280;56604;48.652;9.194;2023-02-28T09:00:03;96882.25;;;-1.36;68.12
69411;BME280;56604;48.652;9.194;2023-02-28T09:02:30;96878.72;;;-1.27;68.61
69411;BME280;56604;48.652;9.194;2023-02-28T09:04:56;96875.34;;;-1.27;68.57
69411;BME280;56604;48.652;9.194;2023-02-28T09:07:21;96875.31;;;-1.36;67.66
69411;BME280;56604;48.652;9.194;2023-02-28T09:09:46;96870.00;;;-1.34;67.76
69411;BME280;56604;48.652;9.194;2023-02-28T09:12:24;96885.00;;;-1.21;67.98
69411;BME280;56604;48.652;9.194;2023-02-28T09:14:50;96884.38;;;-1.15;67.76
69411;BME280;56604;48.652;9.194;2023-02-28T09:17:15;96888.84;;;-1.25;67.36
69411;BME280;56604;48.652;9.194;2023-02-28T09:19:41;96889.38;;;-1.22;67.05
69411;BME280;56604;48.652;9.194;2023-02-28T09:22:07;96892.09;;;-1.23;67.59
69411;BME280;56604;48.652;9.194;2023-02-28T09:24:33;96890.84;;;-1.19;68.26
69411;BME280;56604;48.652;9.194;2023-02-28T09:26:58;96890.50;;;-1.16;67.42
69411;BME280;56604;48.652;9.194;2023-02-28T09:29:23;96900.00;;;-1.08;66.96
69411;BME280;56604;48.652;9.194;2023-02-28T09:31:49;96891.81;;;-1.04;67.01
69411;BME280;56604;48.652;9.194;2023-02-28T09:34:15;96903.13;;;-0.97;67.53
69411;BME280;56604;48.652;9.194;2023-02-28T09:36:42;96890.06;;;-0.87;66.87
69411;BME280;56604;48.652;9.194;2023-02-28T09:39:08;96886.34;;;-0.93;66.14
69411;BME280;56604;48.652;9.194;2023-02-28T09:41:41;96891.81;;;-0.87;66.18
69411;BME280;56604;48.652;9.194;2023-02-28T09:44:22;96896.34;;;-0.81;66.68
69411;BME280;56604;48.652;9.194;2023-02-28T09:46:54;96906.34;;;-0.70;66.12
69411;BME280;56604;48.652;9.194;2023-02-28T09:49:33;96897.00;;;-0.71;65.79
69411;BME280;56604;48.652;9.194;2023-02-28T09:52:07;96897.94;;;-0.80;65.84
69411;BME280;56604;48.652;9.194;2023-02-28T09:54:35;96901.66;;;-0.75;65.16
69411;BME280;56604;48.652;9.194;2023-02-28T09:57:07;96899.56;;;-0.87;65.47
69411;BME280;56604;48.652;9.194;2023-02-28T09:59:52;96908.28;;;-0.72;65.10
69411;BME280;56604;48.652;9.194;2023-02-28T10:02:33;96907.81;;;-0.68;64.51
69411;BME280;56604;48.652;9.194;2023-02-28T10:05:29;96910.72;;;-0.62;65.30
69411;BME280;56604;48.652;9.194;2023-02-28T10:08:05;96916.19;;;-0.65;65.08
69411;BME280;56604;48.652;9.194;2023-02-28T10:13:07;96922.63;;;-0.70;64.21
69411;BME280;56604;48.652;9.194;2023-02-28T10:15:38;96929.25;;;-0.67;65.10
69411;BME280;56604;48.652;9.194;2023-02-28T10:18:06;96926.00;;;-0.77;64.41
69411;BME280;56604;48.652;9.194;2023-02-28T10:20:39;96928.47;;;-0.59;64.85
69411;BME280;56604;48.652;9.194;2023-02-28T10:25:38;96928.63;;;-0.44;63.97
69411;BME280;56604;48.652;9.194;2023-02-28T10:28:15;96930.69;;;-0.24;63.76
69411;BME280;56604;48.652;9.194;2023-02-28T10:30:44;96932.94;;;-0.29;62.65
69411;BME280;56604;48.652;9.194;2023-02-28T10:33:23;96942.47;;;-0.29;62.83
69411;BME280;56604;48.652;9.194;2023-02-28T10:35:50;96930.53;;;-0.30;62.45
69411;BME280;56604;48.652;9.194;2023-02-28T10:38:37;96927.59;;;-0.03;63.15
69411;BME280;56604;48.652;9.194;2023-02-28T10:41:35;96925.34;;;-0.14;63.24
69411;BME280;56604;48.652;9.194;2023-02-28T10:44:19;96927.59;;;-0.11;62.30
69411;BME280;56604;48.652;9.194;2023-02-28T10:46:45;96923.88;;;-0.08;62.99
69411;BME280;56604;48.652;9.194;2023-02-28T10:49:14;96921.91;;;0.10;62.46
69411;BME280;56604;48.652;9.194;2023-02-28T10:51:42;96920.78;;;-0.04;62.21
69411;BME280;56604;48.652;9.194;2023-02-28T10:54:20;96914.00;;;0.12;63.00
69411;BME280;56604;48.652;9.194;2023-02-28T10:57:06;96913.53;;;0.39;61.79
69411;BME280;56604;48.652;9.194;2023-02-28T10:59:32;96924.75;;;0.32;61.18
69411;BME280;56604;48.652;9.194;2023-02-28T11:01:57;96918.69;;;0.48;62.51
69411;BME280;56604;48.652;9.194;2023-02-28T11:06:59;96915.16;;;0.80;60.17
69411;BME280;56604;48.652;9.194;2023-02-28T11:09:32;96906.72;;;1.09;58.84
69411;BME280;56604;48.652;9.194;2023-02-28T11:12:00;96909.81;;;1.27;59.18
69411;BME280;56604;48.652;9.194;2023-02-28T11:14:33;96908.25;;;1.18;58.67
69411;BME280;56604;48.652;9.194;2023-02-28T11:17:14;96919.59;;;0.94;59.81
69411;BME280;56604;48.652;9.194;2023-02-28T11:19:45;96917.75;;;1.26;60.14
69411;BME280;56604;48.652;9.194;2023-02-28T11:22:17;96920.63;;;1.08;58.84
69411;BME280;56604;48.652;9.194;2023-02-28T11:24:47;96922.19;;;1.17;59.00
69411;BME280;56604;48.652;9.194;2023-02-28T11:29:55;96924.03;;;1.08;59.53
69411;BME280;56604;48.652;9.194;2023-02-28T11:32:23;96914.75;;;0.91;59.92
69411;BME280;56604;48.652;9.194;2023-02-28T11:37:38;96914.28;;;1.10;59.21
69411;BME280;56604;48.652;9.194;2023-02-28T11:40:15;96902.38;;;1.24;60.10
69411;BME280;56604;48.652;9.194;2023-02-28T11:45:43;96916.72;;;1.12;59.16
69411;BME280;56604;48.652;9.194;2023-02-28T11:49:02;96895.22;;;1.11;58.65
69411;BME280;56604;48.652;9.194;2023-02-28T11:51:34;96900.16;;;1.21;59.45
69411;BME280;56604;48.652;9.194;2023-02-28T12:00:01;96896.34;;;1.32;58.73
69411;BME280;56604;48.652;9.194;2023-02-28T12:02:35;96897.38;;;1.46;58.53
69411;BME280;56604;48.652;9.194;2023-02-28T12:07:39;96882.44;;;1.86;59.06
69411;BME280;56604;48.652;9.194;2023-02-28T12:16:12;96896.09;;;2.09;57.53
69411;BME280;56604;48.652;9.194;2023-02-28T12:19:06;96880.56;;;1.94;57.32
69411;BME280;56604;48.652;9.194;2023-02-28T12:27:29;96888.72;;;1.53;58.07
69411;BME280;56604;48.652;9.194;2023-02-28T12:30:03;96884.25;;;1.62;58.45
69411;BME280;56604;48.652;9.194;2023-02-28T12:32:40;96887.06;;;1.75;57.91
69411;BME280;56604;48.652;9.194;2023-02-28T12:37:38;96875.81;;;1.98;58.63
69411;BME280;56604;48.652;9.194;2023-02-28T12:40:13;96879.75;;;1.94;57.63
69411;BME280;56604;48.652;9.194;2023-02-28T12:42:50;96872.31;;;2.20;57.25
69411;BME280;56604;48.652;9.194;2023-02-28T12:45:22;96879.91;;;2.07;56.32
69411;BME280;56604;48.652;9.194;2023-02-28T12:47:52;96858.34;;;2.21;57.83
69411;BME280;56604;48.652;9.194;2023-02-28T12:50:20;96858.97;;;2.23;56.70
69411;BME280;56604;48.652;9.194;2023-02-28T12:53:09;96855.25;;;2.11;56.46
69411;BME280;56604;48.652;9.194;2023-02-28T12:55:41;96859.72;;;2.17;56.82
69411;BME280;56604;48.652;9.194;2023-02-28T12:58:27;96874.47;;;2.17;56.64
69411;BME280;56604;48.652;9.194;2023-02-28T13:01:52;96855.59;;;2.08;56.49
69411;BME280;56604;48.652;9.194;2023-02-28T13:10:00;96845.28;;;2.30;57.88
69411;BME280;56604;48.652;9.194;2023-02-28T13:12:28;96849.16;;;2.34;56.16
69411;BME280;56604;48.652;9.194;2023-02-28T13:17:49;96847.25;;;2.42;56.43
69411;BME280;56604;48.652;9.194;2023-02-28T13:20:16;96850.91;;;2.48;56.00
69411;BME280;56604;48.652;9.194;2023-02-28T13:22:52;96845.44;;;2.43;56.75
69411;BME280;56604;48.652;9.194;2023-02-28T13:28:02;96839.44;;;2.57;56.39
69411;BME280;56604;48.652;9.194;2023-02-28T13:33:33;96843.00;;;2.56;56.14
69411;BME280;56604;48.652;9.194;2023-02-28T13:36:12;96843.88;;;2.63;56.07
69411;BME280;56604;48.652;9.194;2023-02-28T13:38:50;96848.06;;;2.64;56.17
69411;BME280;56604;48.652;9.194;2023-02-28T13:46:32;96841.47;;;2.62;55.98
69411;BME280;56604;48.652;9.194;2023-02-28T13:49:27;96848.31;;;2.69;55.71
69411;BME280;56604;48.652;9.194;2023-02-28T13:57:35;96848.47;;;2.83;55.79
69411;BME280;56604;48.652;9.194;2023-02-28T14:03:14;96841.69;;;2.82;54.52
69411;BME280;56604;48.652;9.194;2023-02-28T14:05:43;96841.03;;;3.01;55.07
69411;BME280;56604;48.652;9.194;2023-02-28T14:08:16;96843.50;;;3.09;55.69
69411;BME280;56604;48.652;9.194;2023-02-28T14:10:48;96843.13;;;3.12;53.90
69411;BME280;56604;48.652;9.194;2023-02-28T14:13:41;96833.88;;;3.03;54.25
69411;BME280;56604;48.652;9.194;2023-02-28T14:16:13;96833.25;;;3.23;54.19
69411;BME280;56604;48.652;9.194;2023-02-28T14:18:42;96828.97;;;3.36;54.71
69411;BME280;56604;48.652;9.194;2023-02-28T14:21:14;96840.13;;;3.30;53.42
69411;BME280;56604;48.652;9.194;2023-02-28T14:29:42;96840.84;;;3.24;54.12
69411;BME280;56604;48.652;9.194;2023-02-28T14:32:35;96837.69;;;3.29;53.67
69411;BME280;56604;48.652;9.194;2023-02-28T14:37:50;96846.19;;;3.44;54.37
69411;BME280;56604;48.652;9.194;2023-02-28T14:40:37;96846.44;;;3.49;54.07
69411;BME280;56604;48.652;9.194;2023-02-28T14:43:05;96834.81;;;3.45;53.73
69411;BME280;56604;48.652;9.194;2023-02-28T14:45:33;96841.97;;;3.36;53.54
69411;BME280;56604;48.652;9.194;2023-02-28T14:48:03;96846.06;;;3.52;53.55
69411;BME280;56604;48.652;9.194;2023-02-28T14:50:35;96855.91;;;3.57;53.60
69411;BME280;56604;48.652;9.194;2023-02-28T14:53:02;96839.03;;;3.46;54.43
69411;BME280;56604;48.652;9.194;2023-02-28T14:55:33;96839.50;;;3.56;53.63
69411;BME280;56604;48.652;9.194;2023-02-28T14:58:02;96844.69;;;3.56;52.83